Page Field
KFMY : rendu visible

Aérodrome :











RETROUVEZ-NOUS SUR...

 
LOGIN :

S'inscrire | Disclaimer

   EN    FR    IT 

 









Légende :    VFR   VFR Marginal   IFR   IFR Intensif   IFR Très Intensif
Visi : 
Plafond : 
>= 8 km
>= 3000ft
5 à 8 km
1000 à 3000 ft
1500m à 5 km
500 à 1000 ft
800 à 1500m
200 à 500 ft
< 800m
< 200 ft
Symboles :   Orages  Brouillard  Fortes neiges  Fortes précipitations  Vent > 20 kt






- Altitude de l'aérodrome : 17 ft


KFMY - Page Field

DERNIER METAR :
  • 231953Z 08008KT 10SM SCT070 26/11 A3011 RMK AO2 SLP199 T02560111

METARs EXPIRÉS :
  • 231853Z 10009KT 10SM FEW060 24/12 A3013 RMK AO2 SLP204 T02440117
  • 231753Z 07009G16KT 10SM FEW050 26/12 A3016 RMK AO2 SLP214 T02560122 10256 20128 58025

TAF KFMY
Valide du 23 à 18h jusqu'au 24 à 18h UTC


231737Z 2318/2418 09009KT P6SM FEW040 SCT250
FM240100 VRB04KT P6SM FEW030 FEW250
FM241400 15010KT P6SM FEW030 SCT250



MET'MAP, la Météo Aéronautique d'un coup d'oeil ! - Copyright ORBIFLY Décembre 2007 - Disclaimer

ORBIFLY MET'MAP TEAM :

Programmation & Développement : Alexandra Zaïnal
Sur une idée originale de : Baudouin d'Aumeries
Assistance à la programmation : Marc-Olivier Méhu
Soutien technique & logistique : Manuel Goepfert

Contact : metmap@orbifly.com




SOURCES & CREDITS :

   NOAA       Earth
Advisory